Time;durP1;ratioP1;P1;durP2;ratioP2;P2;SDS_P1;SDS_P2;PMS_P1;PMS_P2;Temp;Humidity;BMP_temperature;BMP_pressure;BME280_temperature;BME280_humidity;BME280_pressure;Samples;Min_cycle;Max_cycle;Signal;HPM_P1;HPM_P2
2022/07/31 00:01:21;;;;;;;5.03;2.70;;;18.30;99.90;;;;;;5035581;28;20241;-59
2022/07/31 00:03:48;;;;;;;4.35;2.70;;;18.30;99.90;;;;;;5035848;28;20213;-60
2022/07/31 00:06:17;;;;;;;3.33;2.63;;;18.20;99.90;;;;;;5035685;28;20202;-59
2022/07/31 00:08:44;;;;;;;4.00;3.00;;;18.10;99.90;;;;;;5035186;28;20682;-60
2022/07/31 00:11:11;;;;;;;2.78;2.50;;;18.00;99.90;;;;;;5035044;28;20226;-59
2022/07/31 00:13:38;;;;;;;3.33;2.63;;;18.00;99.90;;;;;;5035392;28;20472;-59
2022/07/31 00:16:06;;;;;;;4.03;2.72;;;17.90;99.90;;;;;;5036682;28;20740;-59
2022/07/31 00:18:33;;;;;;;2.80;2.58;;;17.90;99.90;;;;;;5035850;28;20206;-59
2022/07/31 00:21:01;;;;;;;3.35;2.50;;;17.90;99.90;;;;;;5036030;28;20226;-60
2022/07/31 00:23:27;;;;;;;2.90;2.35;;;17.90;99.90;;;;;;5035930;28;20206;-59
2022/07/31 00:25:54;;;;;;;3.10;2.80;;;18.00;99.90;;;;;;5034782;28;20647;-59
2022/07/31 00:28:21;;;;;;;2.65;2.40;;;18.00;99.90;;;;;;5035356;28;20219;-60
2022/07/31 00:30:48;;;;;;;4.40;2.70;;;18.00;99.90;;;;;;5034810;28;20234;-59
2022/07/31 00:33:16;;;;;;;2.83;2.60;;;18.00;99.90;;;;;;5035231;28;20202;-59
2022/07/31 00:35:42;;;;;;;4.75;2.95;;;18.00;99.90;;;;;;5034889;28;20234;-59
2022/07/31 00:38:10;;;;;;;3.30;3.00;;;17.90;99.90;;;;;;5034977;28;20214;-59
2022/07/31 00:40:44;;;;;;;3.80;2.72;;;18.00;99.90;;;;;;5034315;28;20329;-59
2022/07/31 00:43:11;;;;;;;3.70;2.90;;;18.00;99.90;;;;;;5035118;28;20205;-59
2022/07/31 00:45:38;;;;;;;4.18;2.65;;;18.00;99.90;;;;;;5035101;28;20209;-60
2022/07/31 00:48:05;;;;;;;3.17;2.70;;;18.10;99.90;;;;;;5034886;28;20212;-59
2022/07/31 00:50:34;;;;;;;8.35;3.00;;;18.10;99.90;;;;;;5034289;28;20234;-59
2022/07/31 00:53:01;;;;;;;3.53;2.72;;;18.20;99.90;;;;;;5034117;28;20214;-59
2022/07/31 00:55:27;;;;;;;4.80;2.70;;;18.20;99.90;;;;;;5034613;28;20238;-60
2022/07/31 00:57:54;;;;;;;3.05;2.58;;;18.20;99.90;;;;;;5034636;28;20212;-59
2022/07/31 01:00:22;;;;;;;3.92;2.80;;;18.20;99.90;;;;;;5034730;28;20249;-59
2022/07/31 01:02:48;;;;;;;2.63;2.17;;;18.10;99.90;;;;;;5034862;28;20232;-59
2022/07/31 01:05:17;;;;;;;5.90;2.80;;;18.20;99.90;;;;;;5034415;28;20233;-58
2022/07/31 01:07:47;;;;;;;5.93;2.92;;;18.10;99.90;;;;;;5034447;28;20234;-60
2022/07/31 01:10:19;;;;;;;4.72;2.85;;;18.10;99.90;;;;;;5034367;28;20318;-59
2022/07/31 01:12:52;;;;;;;4.47;2.30;;;18.20;99.90;;;;;;5034606;28;20210;-60
2022/07/31 01:15:21;;;;;;;2.92;2.60;;;18.20;99.90;;;;;;5034336;28;20309;-59
2022/07/31 01:17:49;;;;;;;4.22;2.65;;;18.30;99.90;;;;;;5034565;28;20202;-59
2022/07/31 01:20:16;;;;;;;3.33;2.35;;;18.20;99.90;;;;;;5034131;28;20230;-59
2022/07/31 01:23:01;;;;;;;2.75;2.55;;;18.10;99.90;;;;;;5034445;28;20685;-59
2022/07/31 01:25:38;;;;;;;4.78;2.70;;;18.00;99.90;;;;;;5034456;28;20210;-58
2022/07/31 01:28:15;;;;;;;2.90;2.47;;;17.90;99.90;;;;;;5034595;28;20260;-59
2022/07/31 01:30:50;;;;;;;3.83;2.60;;;17.90;99.90;;;;;;5033948;28;20717;-59
2022/07/31 01:33:21;;;;;;;3.72;2.50;;;17.90;99.90;;;;;;5034312;28;20210;-59
2022/07/31 01:35:52;;;;;;;3.70;2.70;;;17.90;99.90;;;;;;5034508;28;20248;-59
2022/07/31 01:38:24;;;;;;;3.38;2.78;;;17.90;99.90;;;;;;5034098;28;20210;-58
2022/07/31 01:41:07;;;;;;;4.57;2.90;;;17.90;99.90;;;;;;5034089;28;20612;-59
2022/07/31 01:43:37;;;;;;;2.53;2.30;;;17.80;99.90;;;;;;5035200;28;20214;-59
2022/07/31 01:46:08;;;;;;;2.53;2.33;;;17.80;99.90;;;;;;5034876;28;20241;-59
2022/07/31 01:48:36;;;;;;;3.33;2.63;;;17.80;99.90;;;;;;5036563;28;20225;-59
2022/07/31 01:51:04;;;;;;;3.13;2.50;;;17.80;99.90;;;;;;5035375;28;20276;-59
2022/07/31 01:53:31;;;;;;;3.00;2.70;;;17.70;99.90;;;;;;5035419;28;20206;-59
2022/07/31 01:55:59;;;;;;;3.17;2.75;;;17.70;99.90;;;;;;5037003;28;20321;-59
2022/07/31 01:58:28;;;;;;;2.78;2.30;;;17.80;99.90;;;;;;5034622;28;20206;-59
2022/07/31 02:00:57;;;;;;;3.92;2.45;;;17.80;99.90;;;;;;5033067;28;20240;-59
2022/07/31 02:03:26;;;;;;;3.00;2.28;;;17.90;99.90;;;;;;5032955;28;20210;-59
2022/07/31 02:05:54;;;;;;;7.35;2.50;;;17.90;99.90;;;;;;5032706;28;20225;-59
2022/07/31 02:08:22;;;;;;;3.30;2.42;;;17.80;99.90;;;;;;5033047;28;20214;-59
2022/07/31 02:10:50;;;;;;;4.70;2.45;;;17.80;99.90;;;;;;5032639;28;20230;-59
2022/07/31 02:13:18;;;;;;;2.85;2.55;;;17.90;99.90;;;;;;5032538;28;20206;-59
2022/07/31 02:15:46;;;;;;;3.00;2.20;;;17.80;99.90;;;;;;5032352;28;20230;-59
2022/07/31 02:18:14;;;;;;;3.75;2.58;;;17.80;99.90;;;;;;5032222;28;20320;-59
2022/07/31 02:20:45;;;;;;;2.70;2.50;;;17.80;99.90;;;;;;5031745;28;20785;-59
2022/07/31 02:23:11;;;;;;;4.40;2.40;;;17.70;99.90;;;;;;5032519;28;20202;-59
2022/07/31 02:25:40;;;;;;;3.78;2.80;;;17.70;99.90;;;;;;5032096;28;20693;-59
2022/07/31 02:28:09;;;;;;;2.97;2.40;;;17.80;99.90;;;;;;5032307;28;20214;-59
2022/07/31 02:30:40;;;;;;;3.45;2.70;;;17.70;99.90;;;;;;5031862;28;20226;-59
2022/07/31 02:33:09;;;;;;;2.95;2.65;;;17.60;99.90;;;;;;5032303;28;20207;-59
2022/07/31 02:35:38;;;;;;;3.78;2.60;;;17.60;99.90;;;;;;5032775;28;20608;-59
2022/07/31 02:38:08;;;;;;;4.57;2.83;;;17.60;99.90;;;;;;5032192;28;20678;-59
2022/07/31 02:40:37;;;;;;;3.03;2.72;;;17.60;99.90;;;;;;5033409;28;20740;-59
2022/07/31 02:43:04;;;;;;;2.67;2.47;;;17.50;99.90;;;;;;5037216;28;20678;-59
2022/07/31 02:45:32;;;;;;;3.50;2.80;;;17.50;99.90;;;;;;5037674;28;20206;-59
2022/07/31 02:47:59;;;;;;;2.78;2.42;;;17.50;99.90;;;;;;5037637;28;20260;-59
2022/07/31 02:50:26;;;;;;;2.65;2.45;;;17.40;99.90;;;;;;5036553;28;20233;-59
2022/07/31 02:52:53;;;;;;;2.95;2.40;;;17.40;99.90;;;;;;5035999;28;20206;-59
2022/07/31 02:55:22;;;;;;;4.68;2.65;;;17.30;99.90;;;;;;5036058;28;20228;-59
2022/07/31 02:57:50;;;;;;;2.95;2.53;;;17.20;99.90;;;;;;5036567;28;20210;-59
2022/07/31 03:00:22;;;;;;;3.30;2.75;;;17.20;99.90;;;;;;5036400;28;20230;-59
2022/07/31 03:02:49;;;;;;;2.80;2.60;;;17.10;99.90;;;;;;5036643;28;20744;-59
2022/07/31 03:05:16;;;;;;;3.38;2.63;;;17.10;99.90;;;;;;5036858;28;20256;-59
2022/07/31 03:07:43;;;;;;;4.20;2.80;;;17.10;99.90;;;;;;5036530;28;20211;-59
2022/07/31 03:10:11;;;;;;;3.50;2.65;;;17.00;99.90;;;;;;5036751;28;20230;-59
2022/07/31 03:12:40;;;;;;;3.88;2.60;;;17.00;99.90;;;;;;5036408;28;20210;-59
2022/07/31 03:15:09;;;;;;;3.17;2.63;;;16.90;99.90;;;;;;5036871;28;20207;-59
2022/07/31 03:17:38;;;;;;;2.80;2.50;;;16.90;99.90;;;;;;5036860;28;20210;-59
2022/07/31 03:20:06;;;;;;;3.47;2.70;;;16.80;99.90;;;;;;5036848;28;20230;-59
2022/07/31 03:22:33;;;;;;;3.20;2.90;;;16.80;99.90;;;;;;5036714;28;20747;-59
2022/07/31 03:25:00;;;;;;;3.45;2.67;;;16.70;99.90;;;;;;5037465;28;20206;-59
2022/07/31 03:27:27;;;;;;;4.90;2.70;;;16.70;99.90;;;;;;5037599;28;20680;-59
2022/07/31 03:29:55;;;;;;;3.13;2.50;;;16.70;99.90;;;;;;5038139;28;20233;-59
2022/07/31 03:32:22;;;;;;;6.32;2.60;;;16.60;99.90;;;;;;5037827;28;20669;-59
2022/07/31 03:34:49;;;;;;;3.80;3.05;;;16.50;99.90;;;;;;5038035;28;20228;-59
2022/07/31 03:37:15;;;;;;;3.13;2.90;;;16.50;99.90;;;;;;5038283;28;20237;-59
2022/07/31 03:39:42;;;;;;;3.15;2.85;;;16.60;99.90;;;;;;5037745;28;20206;-59
2022/07/31 03:42:10;;;;;;;3.83;3.00;;;16.60;99.90;;;;;;5039203;28;20211;-58
2022/07/31 03:44:38;;;;;;;3.20;2.90;;;16.50;99.90;;;;;;5038511;28;20211;-59
2022/07/31 03:47:07;;;;;;;3.10;2.80;;;16.50;99.90;;;;;;5038454;28;20210;-59
2022/07/31 03:49:34;;;;;;;4.47;2.80;;;16.50;99.90;;;;;;5038716;28;20214;-59
2022/07/31 03:52:02;;;;;;;4.05;2.63;;;16.50;99.90;;;;;;5038082;28;20229;-59
2022/07/31 03:54:28;;;;;;;2.92;2.63;;;16.50;99.90;;;;;;5038822;28;20233;-59
2022/07/31 03:56:57;;;;;;;4.95;2.83;;;16.50;99.90;;;;;;5038537;28;20295;-59
2022/07/31 03:59:25;;;;;;;2.75;2.55;;;16.40;99.90;;;;;;5038471;28;20215;-59
2022/07/31 04:01:52;;;;;;;3.20;2.90;;;16.50;99.90;;;;;;5037460;28;20646;-58
2022/07/31 04:04:20;;;;;;;4.27;3.47;;;16.40;99.90;;;;;;5036289;28;20212;-59
2022/07/31 04:06:47;;;;;;;5.82;4.15;;;16.50;99.90;;;;;;5036655;28;20202;-60
2022/07/31 04:09:14;;;;;;;7.50;4.33;;;16.40;99.90;;;;;;5036521;28;20333;-58
2022/07/31 04:11:41;;;;;;;6.60;4.43;;;16.40;99.90;;;;;;5037006;28;20607;-58
2022/07/31 04:14:08;;;;;;;5.22;3.72;;;16.40;99.90;;;;;;5037206;28;20242;-59
2022/07/31 04:16:34;;;;;;;6.73;3.90;;;16.40;99.90;;;;;;5037790;28;20229;-59
2022/07/31 04:19:01;;;;;;;7.68;3.50;;;16.40;99.90;;;;;;5037479;28;20221;-59
2022/07/31 04:21:29;;;;;;;5.37;3.40;;;16.40;99.90;;;;;;5037133;28;20353;-59
2022/07/31 04:23:56;;;;;;;5.15;3.85;;;16.40;99.90;;;;;;5037725;28;20222;-59
2022/07/31 04:26:22;;;;;;;3.85;3.47;;;16.40;99.90;;;;;;5037706;28;20272;-59
2022/07/31 04:28:50;;;;;;;5.23;3.50;;;16.30;99.90;;;;;;5037618;28;20221;-59
2022/07/31 04:31:16;;;;;;;5.63;3.43;;;16.30;99.90;;;;;;5035727;28;20230;-59
2022/07/31 04:33:44;;;;;;;3.50;3.20;;;16.40;99.90;;;;;;5036169;28;20622;-59
2022/07/31 04:36:11;;;;;;;4.40;3.33;;;16.30;99.90;;;;;;5036659;28;20305;-59
2022/07/31 04:38:39;;;;;;;6.13;2.93;;;16.40;99.90;;;;;;5036026;28;20206;-59
2022/07/31 04:41:06;;;;;;;5.63;3.30;;;16.50;99.90;;;;;;5035040;28;20238;-58
2022/07/31 04:43:32;;;;;;;3.27;2.97;;;16.50;99.90;;;;;;5035985;28;20210;-58
2022/07/31 04:45:59;;;;;;;5.85;3.22;;;16.70;99.90;;;;;;5035773;28;20199;-58
2022/07/31 04:48:26;;;;;;;3.90;3.50;;;16.80;99.90;;;;;;5035927;28;20206;-59
2022/07/31 04:50:52;;;;;;;4.63;3.28;;;16.90;99.90;;;;;;5035753;28;20230;-59
2022/07/31 04:53:19;;;;;;;3.13;2.67;;;17.00;99.90;;;;;;5036489;28;20208;-60
2022/07/31 04:58:28;;;;;;;4.65;2.90;;;17.20;99.90;;;;;;5035603;28;20202;-58
2022/07/31 05:00:54;;;;;;;4.25;2.83;;;17.30;99.90;;;;;;5035849;28;20237;-58
2022/07/31 05:03:21;;;;;;;4.93;3.20;;;17.40;99.90;;;;;;5036358;28;20209;-59
2022/07/31 05:05:48;;;;;;;3.53;2.85;;;17.50;99.90;;;;;;5035406;28;20233;-59
2022/07/31 05:08:15;;;;;;;7.40;3.20;;;17.70;99.90;;;;;;5035262;28;20206;-60
2022/07/31 05:13:27;;;;;;;3.00;2.58;;;17.90;99.90;;;;;;5027457;28;20201;-58
2022/07/31 05:15:53;;;;;;;5.80;2.70;;;18.10;99.90;;;;;;5034953;28;20221;-59
2022/07/31 05:18:20;;;;;;;3.25;2.83;;;18.30;99.90;;;;;;5035427;28;20213;-58
2022/07/31 05:20:47;;;;;;;3.97;2.97;;;18.50;99.90;;;;;;5034303;28;20230;-59
2022/07/31 05:23:14;;;;;;;3.40;2.50;;;18.80;99.90;;;;;;5034674;28;20693;-59
2022/07/31 05:25:41;;;;;;;7.50;2.70;;;19.10;99.90;;;;;;5035943;28;20210;-59
2022/07/31 05:28:08;;;;;;;3.58;2.38;;;19.60;99.90;;;;;;5035948;28;20678;-59
2022/07/31 05:30:36;;;;;;;3.28;2.60;;;20.10;99.90;;;;;;5035843;28;20233;-59
2022/07/31 05:33:04;;;;;;;6.72;2.50;;;20.60;99.90;;;;;;5035172;28;20241;-59
2022/07/31 05:35:30;;;;;;;3.47;2.22;;;21.10;99.90;;;;;;5036330;28;20216;-59
2022/07/31 05:37:57;;;;;;;2.45;2.25;;;21.50;99.90;;;;;;5036185;28;20248;-59
2022/07/31 05:40:24;;;;;;;2.50;2.30;;;22.10;99.90;;;;;;5034547;28;20265;-60
2022/07/31 05:42:51;;;;;;;2.20;2.00;;;22.40;99.90;;;;;;5034865;28;20260;-60
2022/07/31 05:45:17;;;;;;;3.25;2.40;;;22.70;99.90;;;;;;5034850;28;20257;-59
2022/07/31 05:47:45;;;;;;;4.93;2.20;;;22.80;99.90;;;;;;5034018;28;20217;-61
2022/07/31 05:50:13;;;;;;;3.85;2.30;;;22.80;99.90;;;;;;5033846;28;20258;-60
2022/07/31 05:52:40;;;;;;;2.90;2.15;;;22.80;99.90;;;;;;5033465;28;20206;-60
2022/07/31 05:55:07;;;;;;;3.85;2.20;;;22.90;99.90;;;;;;5034702;28;20206;-60
2022/07/31 05:57:34;;;;;;;3.38;2.33;;;23.00;99.90;;;;;;5034789;28;20233;-61
2022/07/31 06:00:01;;;;;;;3.80;2.42;;;23.00;99.90;;;;;;5033947;28;20252;-61
2022/07/31 06:02:27;;;;;;;3.03;2.35;;;23.10;99.90;;;;;;5034249;28;20210;-60
2022/07/31 06:04:55;;;;;;;2.72;2.10;;;23.10;99.90;;;;;;5033837;28;20257;-61
2022/07/31 06:07:22;;;;;;;4.15;2.42;;;23.30;99.90;;;;;;5033841;28;20586;-60
2022/07/31 06:09:49;;;;;;;2.22;1.90;;;23.50;99.90;;;;;;5033655;28;20210;-60
2022/07/31 06:12:15;;;;;;;3.75;2.20;;;23.70;99.90;;;;;;5034380;28;20210;-60
2022/07/31 06:14:42;;;;;;;2.70;2.00;;;24.10;99.90;;;;;;5034559;28;20206;-61
2022/07/31 06:17:09;;;;;;;2.85;2.00;;;24.40;99.90;;;;;;5036457;28;20226;-61
2022/07/31 06:19:36;;;;;;;3.60;1.92;;;24.60;99.90;;;;;;5038776;28;20206;-61
2022/07/31 06:22:04;;;;;;;4.03;1.83;;;24.80;99.90;;;;;;5037588;28;20678;-60
2022/07/31 06:24:31;;;;;;;3.65;1.60;;;25.20;99.60;;;;;;5039850;28;20210;-60
2022/07/31 06:26:58;;;;;;;3.47;2.08;;;25.30;98.70;;;;;;5038651;28;20309;-60
2022/07/31 06:29:26;;;;;;;3.63;1.90;;;25.40;98.10;;;;;;5038175;28;20213;-61
2022/07/31 06:31:53;;;;;;;2.95;1.83;;;25.50;98.00;;;;;;5037620;28;20230;-60
2022/07/31 06:34:20;;;;;;;3.92;2.00;;;25.60;97.70;;;;;;5038736;28;20206;-59
2022/07/31 06:36:47;;;;;;;3.53;2.58;;;25.60;97.00;;;;;;5037940;28;20229;-60
2022/07/31 06:39:15;;;;;;;2.70;1.90;;;25.70;96.80;;;;;;5038412;28;20602;-60
2022/07/31 06:41:46;;;;;;;2.30;2.00;;;25.70;96.50;;;;;;5037787;28;20741;-59
2022/07/31 06:44:14;;;;;;;2.72;1.75;;;25.70;95.80;;;;;;5037447;28;20630;-61
2022/07/31 06:46:40;;;;;;;2.50;2.00;;;25.80;95.30;;;;;;5036195;28;20206;-58
2022/07/31 06:49:08;;;;;;;6.82;3.58;;;25.90;95.10;;;;;;5035702;28;20210;-58
2022/07/31 06:51:35;;;;;;;4.72;2.10;;;26.20;94.80;;;;;;5035742;28;20233;-58
2022/07/31 06:54:04;;;;;;;2.30;1.60;;;26.50;94.00;;;;;;5035554;28;20601;-58
2022/07/31 06:56:34;;;;;;;2.97;2.08;;;26.80;93.20;;;;;;5035618;28;20670;-58
2022/07/31 06:59:01;;;;;;;2.33;2.00;;;27.20;92.10;;;;;;5035867;28;20647;-65
2022/07/31 07:01:28;;;;;;;4.45;1.65;;;27.60;91.60;;;;;;5035484;28;20309;-58
2022/07/31 07:03:55;;;;;;;4.20;2.08;;;27.90;91.00;;;;;;5035652;28;20716;-58
2022/07/31 07:06:22;;;;;;;3.25;1.92;;;28.20;90.30;;;;;;5035754;28;20206;-58
2022/07/31 07:08:49;;;;;;;4.32;2.10;;;28.60;88.00;;;;;;5035584;28;20692;-58
2022/07/31 07:11:16;;;;;;;3.97;2.42;;;28.90;85.80;;;;;;5036817;28;20237;-60
2022/07/31 07:13:45;;;;;;;4.15;2.10;;;29.10;85.40;;;;;;5035513;28;20228;-58
2022/07/31 07:16:12;;;;;;;2.80;1.77;;;29.10;84.70;;;;;;5035187;28;20206;-57
2022/07/31 07:18:39;;;;;;;3.28;1.83;;;29.00;82.80;;;;;;5035243;28;20253;-58
2022/07/31 07:21:06;;;;;;;3.03;2.10;;;29.00;82.80;;;;;;5035120;28;20241;-58
2022/07/31 07:23:32;;;;;;;2.17;1.65;;;29.10;82.60;;;;;;5035037;28;20602;-58
2022/07/31 07:25:59;;;;;;;1.90;1.55;;;29.30;82.50;;;;;;5035272;28;20204;-57
2022/07/31 07:28:26;;;;;;;3.20;1.70;;;30.20;79.90;;;;;;5034531;28;20670;-59
2022/07/31 07:30:54;;;;;;;3.38;1.60;;;30.90;77.30;;;;;;5034737;28;20231;-57
2022/07/31 07:33:20;;;;;;;1.92;1.70;;;31.10;76.00;;;;;;5035103;28;20210;-58
2022/07/31 07:35:47;;;;;;;2.63;1.83;;;31.00;74.80;;;;;;5035342;28;20209;-58
2022/07/31 07:38:14;;;;;;;5.22;1.98;;;30.80;74.80;;;;;;5035928;28;20230;-58
2022/07/31 07:40:41;;;;;;;5.57;3.70;;;30.60;74.60;;;;;;5035379;28;20234;-58
2022/07/31 07:43:08;;;;;;;2.83;1.95;;;30.70;73.60;;;;;;5035407;28;20213;-57
2022/07/31 07:45:34;;;;;;;6.28;1.70;;;31.10;72.90;;;;;;5034700;28;20244;-58
2022/07/31 07:48:03;;;;;;;2.92;2.15;;;31.40;71.70;;;;;;5035084;28;20202;-58
2022/07/31 07:50:29;;;;;;;6.85;1.67;;;31.40;70.70;;;;;;5034594;28;20253;-65
2022/07/31 07:52:56;;;;;;;2.80;1.73;;;30.80;72.60;;;;;;5035144;28;20206;-59
2022/07/31 07:55:25;;;;;;;4.20;1.70;;;30.80;71.50;;;;;;5035051;28;20670;-59
2022/07/31 07:57:51;;;;;;;2.35;1.75;;;31.10;70.40;;;;;;5034448;28;20256;-59
2022/07/31 08:00:18;;;;;;;2.45;1.67;;;31.30;69.20;;;;;;5034231;28;20671;-58
2022/07/31 08:02:47;;;;;;;4.07;2.17;;;31.30;68.40;;;;;;5034391;28;20210;-58
2022/07/31 08:05:15;;;;;;;4.55;2.13;;;31.30;67.50;;;;;;5034535;28;20693;-58
2022/07/31 08:07:43;;;;;;;2.22;1.85;;;30.60;68.70;;;;;;5034483;28;20209;-59
2022/07/31 08:10:11;;;;;;;4.75;2.03;;;29.80;72.10;;;;;;5034223;28;20230;-59
2022/07/31 08:12:39;;;;;;;3.80;1.90;;;29.30;71.00;;;;;;5034179;28;20489;-58
2022/07/31 08:15:07;;;;;;;2.13;1.95;;;28.80;73.00;;;;;;5034043;28;20206;-59
2022/07/31 08:17:34;;;;;;;1.95;1.60;;;28.70;73.40;;;;;;5034152;28;20225;-59
2022/07/31 08:20:01;;;;;;;3.45;2.10;;;28.80;72.30;;;;;;5034205;28;20233;-59
2022/07/31 08:22:29;;;;;;;2.60;1.80;;;29.00;71.70;;;;;;5033741;28;20244;-59
2022/07/31 08:24:56;;;;;;;3.75;1.70;;;29.30;71.50;;;;;;5033776;28;20207;-59
2022/07/31 08:27:26;;;;;;;2.13;1.70;;;29.60;71.20;;;;;;5034169;28;20554;-59
2022/07/31 08:29:55;;;;;;;2.75;1.88;;;30.00;70.60;;;;;;5033914;28;20318;-59
2022/07/31 08:32:22;;;;;;;2.60;1.98;;;30.50;70.40;;;;;;5033766;28;20207;-59
2022/07/31 08:34:49;;;;;;;2.55;2.00;;;30.90;68.90;;;;;;5033981;28;20209;-59
2022/07/31 08:37:18;;;;;;;2.53;1.55;;;31.20;66.10;;;;;;5033699;28;20222;-60
2022/07/31 08:39:47;;;;;;;4.00;1.70;;;31.40;61.80;;;;;;5032740;28;20232;-59
2022/07/31 08:42:14;;;;;;;3.10;2.20;;;31.90;61.70;;;;;;5033580;28;20240;-59
2022/07/31 08:44:42;;;;;;;4.10;1.52;;;32.40;56.70;;;;;;5033661;28;20206;-59
2022/07/31 08:47:11;;;;;;;3.40;1.65;;;32.30;56.60;;;;;;5033542;28;20566;-59
2022/07/31 08:49:40;;;;;;;4.82;1.80;;;32.50;57.20;;;;;;5033399;28;20237;-59
2022/07/31 08:52:09;;;;;;;3.47;2.17;;;32.70;57.90;;;;;;5033225;28;20564;-59
2022/07/31 08:54:37;;;;;;;4.20;2.70;;;33.00;54.20;;;;;;5033457;28;20211;-59
2022/07/31 08:57:05;;;;;;;2.20;1.75;;;33.40;52.00;;;;;;5033269;28;20213;-59
2022/07/31 08:59:32;;;;;;;3.90;1.45;;;33.70;50.40;;;;;;5033236;28;20210;-59
2022/07/31 09:01:58;;;;;;;2.33;1.30;;;33.80;48.40;;;;;;5033134;28;20214;-60
2022/07/31 09:04:25;;;;;;;3.35;1.30;;;34.00;48.10;;;;;;5033179;28;20693;-59
2022/07/31 09:06:53;;;;;;;1.35;1.20;;;34.10;48.40;;;;;;5033282;28;20211;-59
2022/07/31 09:09:19;;;;;;;3.92;1.70;;;34.20;48.80;;;;;;5033366;28;20210;-59
2022/07/31 09:11:47;;;;;;;2.28;1.42;;;34.20;48.30;;;;;;5033238;28;20317;-58
2022/07/31 09:14:26;;;;;;;1.88;1.45;;;34.10;49.60;;;;;;5033199;28;20217;-60
2022/07/31 09:16:53;;;;;;;3.55;1.60;;;33.80;51.60;;;;;;5033563;28;20209;-60
2022/07/31 09:19:21;;;;;;;2.28;1.45;;;33.70;50.60;;;;;;5032853;28;20229;-59
2022/07/31 09:21:48;;;;;;;1.85;1.58;;;33.40;50.90;;;;;;5033341;28;20332;-59
2022/07/31 09:24:26;;;;;;;3.53;1.85;;;32.80;52.30;;;;;;5033113;28;20210;-59
2022/07/31 09:27:01;;;;;;;4.55;1.50;;;32.40;53.60;;;;;;5032755;28;20234;-59
2022/07/31 09:29:38;;;;;;;3.63;1.60;;;32.10;51.90;;;;;;5033170;28;20222;-57
2022/07/31 09:32:09;;;;;;;2.05;1.52;;;31.60;53.30;;;;;;5033031;28;20202;-58
2022/07/31 09:34:36;;;;;;;2.00;1.13;;;31.20;53.10;;;;;;5033386;28;20214;-58
2022/07/31 09:37:11;;;;;;;3.17;1.52;;;31.00;53.50;;;;;;5033327;28;20210;-59
2022/07/31 09:39:38;;;;;;;2.08;1.40;;;30.80;52.90;;;;;;5033633;28;20201;-58
2022/07/31 09:45:28;;;;;;;2.78;2.00;;;30.60;52.40;;;;;;5012708;28;20233;-55
2022/07/31 09:48:07;;;;;;;2.40;1.70;;;30.50;52.30;;;;;;5012412;28;20582;-55
2022/07/31 09:50:33;;;;;;;1.98;1.55;;;30.30;52.70;;;;;;5012328;28;20676;-56
2022/07/31 09:53:01;;;;;;;1.63;1.50;;;30.20;53.20;;;;;;5012227;28;20265;-56
2022/07/31 09:55:28;;;;;;;5.20;1.73;;;30.30;53.50;;;;;;5012572;28;20690;-55
2022/07/31 09:57:57;;;;;;;3.78;1.80;;;30.30;53.20;;;;;;5012465;28;20302;-56
2022/07/31 10:00:25;;;;;;;3.35;2.25;;;30.40;52.70;;;;;;5012410;28;20230;-58
2022/07/31 10:02:55;;;;;;;2.25;1.52;;;30.50;53.40;;;;;;5012087;28;20634;-56
2022/07/31 10:05:23;;;;;;;2.45;1.60;;;30.60;53.20;;;;;;5012836;28;20211;-59
2022/07/31 10:07:51;;;;;;;3.88;1.63;;;30.90;52.90;;;;;;5012576;28;20285;-56
2022/07/31 10:10:18;;;;;;;3.70;1.40;;;31.40;53.20;;;;;;5012199;28;20237;-56
2022/07/31 10:12:49;;;;;;;1.75;1.50;;;31.90;52.30;;;;;;5012047;28;20225;-60
2022/07/31 10:15:18;;;;;;;2.08;1.45;;;32.30;51.30;;;;;;5009490;28;20911;-63
2022/07/31 10:17:48;;;;;;;3.28;1.73;;;32.80;51.20;;;;;;5011066;28;20669;-59
2022/07/31 10:20:20;;;;;;;2.08;1.27;;;32.80;50.60;;;;;;5011393;28;20226;-61
2022/07/31 10:22:50;;;;;;;3.40;1.48;;;32.60;50.70;;;;;;5011709;28;20262;-62
2022/07/31 10:25:21;;;;;;;3.00;1.40;;;32.20;51.30;;;;;;5017574;28;20214;-60
2022/07/31 10:27:48;;;;;;;2.58;2.10;;;31.90;52.10;;;;;;5011255;28;20211;-60
2022/07/31 10:30:15;;;;;;;3.80;1.40;;;32.00;52.50;;;;;;5011048;28;20790;-57
2022/07/31 10:32:43;;;;;;;4.65;1.30;;;32.10;52.00;;;;;;5011109;28;20693;-58
2022/07/31 10:35:10;;;;;;;3.72;1.48;;;31.90;51.60;;;;;;5011129;28;20206;-64
2022/07/31 10:37:45;;;;;;;1.83;1.38;;;31.60;52.10;;;;;;5010915;28;20304;-61
2022/07/31 10:40:23;;;;;;;2.55;1.30;;;31.40;52.90;;;;;;5010862;28;20285;-62
2022/07/31 10:43:00;;;;;;;2.92;1.48;;;31.40;53.30;;;;;;5010686;28;20238;-61
2022/07/31 10:45:28;;;;;;;3.88;1.38;;;31.30;52.80;;;;;;5011196;28;20217;-61
2022/07/31 10:47:56;;;;;;;2.85;1.38;;;31.10;53.30;;;;;;5010783;28;20589;-60
2022/07/31 10:50:25;;;;;;;3.35;1.40;;;31.10;54.10;;;;;;5011206;28;20237;-57
2022/07/31 10:52:53;;;;;;;1.83;1.45;;;31.10;54.00;;;;;;5010543;28;20207;-58
2022/07/31 10:55:24;;;;;;;1.38;1.23;;;31.10;53.80;;;;;;5011239;28;20313;-59
2022/07/31 10:57:51;;;;;;;1.92;1.10;;;31.10;53.60;;;;;;5010754;28;20257;-58
2022/07/31 11:00:21;;;;;;;2.28;1.42;;;31.00;54.10;;;;;;5010444;28;20207;-57
2022/07/31 11:02:48;;;;;;;5.70;1.60;;;30.90;54.20;;;;;;5011331;28;20289;-59
2022/07/31 11:05:19;;;;;;;4.13;1.50;;;30.90;54.40;;;;;;5014741;28;20650;-63
2022/07/31 11:07:46;;;;;;;5.05;1.65;;;30.80;54.60;;;;;;5014850;28;20214;-60
2022/07/31 11:10:17;;;;;;;4.30;1.80;;;30.90;54.90;;;;;;5014519;28;20210;-59
2022/07/31 11:12:44;;;;;;;3.10;1.27;;;30.90;55.20;;;;;;5013733;28;20824;-58
2022/07/31 11:15:19;;;;;;;2.67;1.40;;;30.90;55.10;;;;;;5014584;28;20246;-61
2022/07/31 11:17:46;;;;;;;1.70;1.20;;;30.80;54.80;;;;;;5014366;28;20299;-62
2022/07/31 11:20:26;;;;;;;2.03;1.30;;;30.70;55.00;;;;;;5014022;28;20619;-64
2022/07/31 11:22:58;;;;;;;3.15;1.20;;;30.60;55.30;;;;;;5014220;28;20207;-65
2022/07/31 11:25:29;;;;;;;2.50;1.58;;;30.70;55.30;;;;;;5014299;28;20211;-61
2022/07/31 11:27:56;;;;;;;3.20;2.28;;;30.90;55.70;;;;;;5033384;28;20206;-60
2022/07/31 11:30:23;;;;;;;4.10;1.80;;;31.10;55.20;;;;;;5033663;28;20233;-60
2022/07/31 11:32:51;;;;;;;3.67;1.83;;;31.30;54.80;;;;;;5033549;28;20206;-64
2022/07/31 11:35:25;;;;;;;4.47;1.70;;;31.50;54.20;;;;;;5034242;28;20647;-59
2022/07/31 11:37:52;;;;;;;4.13;1.25;;;31.70;54.20;;;;;;5033782;28;20206;-60
2022/07/31 11:40:19;;;;;;;2.10;1.70;;;31.60;53.90;;;;;;5033704;28;20230;-59
2022/07/31 11:42:48;;;;;;;6.85;5.20;;;31.60;54.40;;;;;;5033995;28;20290;-61
2022/07/31 11:45:15;;;;;;;4.50;1.55;;;31.70;54.40;;;;;;5034432;28;20213;-58
2022/07/31 11:47:44;;;;;;;2.17;1.40;;;32.10;53.70;;;;;;5034421;28;20252;-61
2022/07/31 11:50:11;;;;;;;3.60;1.50;;;32.50;53.00;;;;;;5033865;28;20218;-61
2022/07/31 11:52:42;;;;;;;2.92;1.80;;;32.90;51.70;;;;;;5034136;28;20214;-61
2022/07/31 11:55:10;;;;;;;3.08;1.50;;;33.20;51.90;;;;;;5033757;28;20304;-60
2022/07/31 11:57:37;;;;;;;3.45;1.30;;;33.40;50.90;;;;;;5033400;28;20256;-59
2022/07/31 12:00:11;;;;;;;5.45;3.65;;;33.40;51.10;;;;;;5033180;28;20237;-59
2022/07/31 12:02:43;;;;;;;3.85;2.35;;;33.30;51.50;;;;;;5033356;28;20682;-61
2022/07/31 12:05:12;;;;;;;1.63;1.38;;;33.40;51.20;;;;;;5033656;28;20681;-59
2022/07/31 12:07:40;;;;;;;4.90;2.33;;;33.40;50.80;;;;;;5033655;28;20242;-60
2022/07/31 12:10:08;;;;;;;4.13;2.38;;;33.50;50.60;;;;;;5033269;28;20726;-59
2022/07/31 12:12:36;;;;;;;2.97;2.10;;;33.70;50.60;;;;;;5033559;28;20217;-59
2022/07/31 12:15:18;;;;;;;1.77;1.35;;;33.90;51.10;;;;;;5031774;28;20569;-59
2022/07/31 12:17:45;;;;;;;3.38;2.10;;;34.10;50.00;;;;;;5032937;28;20255;-61
2022/07/31 12:20:13;;;;;;;5.63;1.40;;;34.10;50.00;;;;;;5032854;28;20725;-60
2022/07/31 12:22:40;;;;;;;2.28;1.60;;;33.90;49.70;;;;;;5032711;28;20301;-63
2022/07/31 12:25:11;;;;;;;2.28;1.30;;;33.90;50.00;;;;;;5033548;28;20234;-59
2022/07/31 12:27:38;;;;;;;2.92;1.40;;;34.10;49.60;;;;;;5016531;28;20284;-59
2022/07/31 12:30:17;;;;;;;3.53;1.30;;;34.40;49.10;;;;;;5013005;28;20199;-59
2022/07/31 12:32:44;;;;;;;2.72;2.08;;;34.40;49.30;;;;;;5012687;28;20207;-60
2022/07/31 12:35:11;;;;;;;6.35;3.05;;;34.30;49.90;;;;;;5012793;28;20265;-60
2022/07/31 12:37:45;;;;;;;4.35;1.52;;;34.10;50.10;;;;;;5012906;28;20288;-62
2022/07/31 12:40:26;;;;;;;2.63;1.88;;;33.80;50.40;;;;;;5011986;28;20227;-61
2022/07/31 12:42:53;;;;;;;4.93;2.00;;;33.40;50.50;;;;;;5012336;28;20221;-61
2022/07/31 12:45:35;;;;;;;4.32;2.72;;;33.00;51.00;;;;;;5012268;28;20291;-61
2022/07/31 12:48:02;;;;;;;3.70;1.75;;;32.90;51.30;;;;;;5012504;28;20246;-61
2022/07/31 12:50:31;;;;;;;1.58;1.48;;;33.00;51.30;;;;;;5012096;28;20241;-62
2022/07/31 12:53:01;;;;;;;4.07;2.70;;;33.10;51.00;;;;;;5012083;28;20207;-60
2022/07/31 12:55:29;;;;;;;3.20;2.15;;;33.20;51.00;;;;;;5012477;28;20649;-62
2022/07/31 12:57:55;;;;;;;5.72;2.10;;;33.50;50.90;;;;;;5011978;28;20234;-62
2022/07/31 13:00:24;;;;;;;3.70;1.50;;;33.70;50.50;;;;;;5012170;28;20238;-63
2022/07/31 13:02:54;;;;;;;2.00;1.30;;;33.80;50.20;;;;;;5012101;28;20497;-59